Ardmore Seamaster — V7UU8 — position and weather

sailwx.info

Track history (hours):
 
Tides and Currents Weather Stations Pressure Air Temp Water Temp Dewpoint Dewpoint Depression Visibility Wind Speed Wind Dir Waves Ship Positions

Ardmore Seamaster

Last reported at 2015-Jun-30 11:31 UTC. Time now 2015-Jul-04 19:01 UTC.
Position N 29°38' W 089°57'.

Length 179 m; draft 11 m.

Type: Tanker. MMSI: 538004102.

Date/timePositionNaut miles runAvg speedWind from/ knotsBaromVisibWave heightAir tempDewpointWater temp
2015-Jun-30 11:31N 29°38' W 089°57'1412.8
2015-Jun-30 10:23N 29°53' W 089°58'3 3.5
2015-Jun-30 09:33N 29°56' W 089°59'62 8.4
2015-Jun-30 02:12N 30°14' W 091°07'710.8
2015-Jun-30 01:33N 30°19' W 091°13'4 3.8
2015-Jun-30 00:33N 30°22' W 091°14'7 6.5
2015-Jun-29 23:32N 30°29' W 091°12'0 0.0
2015-Jun-29 22:33N 30°29' W 091°12'0 0.0
2015-Jun-29 21:33N 30°29' W 091°12'0 0.0
2015-Jun-29 20:32N 30°29' W 091°12'0 0.0
2015-Jun-29 19:33N 30°29' W 091°12'0 0.0
2015-Jun-29 18:33N 30°29' W 091°12'0 0.0
2015-Jun-29 17:33N 30°29' W 091°12'0 0.0
2015-Jun-29 16:32N 30°29' W 091°12'0 0.0
2015-Jun-29 15:32N 30°29' W 091°12'0 0.0
2015-Jun-29 14:32N 30°29' W 091°12'0 0.0
2015-Jun-29 13:32N 30°29' W 091°12'0 0.0
2015-Jun-29 12:29N 30°29' W 091°12'0 0.0
2015-Jun-29 11:33N 30°29' W 091°12'0 0.0
2015-Jun-29 10:32N 30°29' W 091°12'0 0.0
2015-Jun-29 09:32N 30°29' W 091°12'0 0.0
2015-Jun-29 08:32N 30°29' W 091°12'0 0.0
2015-Jun-29 07:32N 30°29' W 091°12'0 0.0
2015-Jun-29 06:32N 30°29' W 091°12'0 0.0
2015-Jun-29 05:32N 30°29' W 091°12'0 0.0
2015-Jun-29 04:32N 30°29' W 091°12'0 0.0
2015-Jun-29 03:33N 30°29' W 091°12'0 0.0
2015-Jun-29 02:32N 30°29' W 091°12'0 0.0
2015-Jun-29 01:32N 30°29' W 091°12'0 0.0
2015-Jun-29 00:32N 30°29' W 091°12'0 0.0
2015-Jun-28 23:32N 30°29' W 091°12'0 0.0
2015-Jun-28 22:32N 30°29' W 091°12'0 0.0
2015-Jun-28 21:33N 30°29' W 091°12'0 0.0
2015-Jun-28 20:32N 30°29' W 091°12'0 0.0
2015-Jun-28 19:33N 30°29' W 091°12'0 0.0
2015-Jun-28 18:33N 30°29' W 091°12'0 0.0
2015-Jun-28 17:33N 30°29' W 091°12'0 0.0
2015-Jun-28 16:32N 30°29' W 091°12'0 0.0
2015-Jun-28 15:33N 30°29' W 091°12'0 0.0
2015-Jun-28 14:33N 30°29' W 091°12'0 0.0
2015-Jun-28 13:32N 30°29' W 091°12'0 0.0
2015-Jun-28 12:33N 30°29' W 091°12'0 0.0
2015-Jun-28 11:32N 30°29' W 091°12'0 0.0
2015-Jun-28 10:32N 30°29' W 091°12'0 0.0
2015-Jun-28 09:32N 30°29' W 091°12'0 0.0
2015-Jun-28 08:33N 30°29' W 091°12'0 0.0
2015-Jun-28 07:33N 30°29' W 091°12'0 0.0
2015-Jun-28 06:32N 30°29' W 091°12'0 0.0
2015-Jun-28 05:32N 30°29' W 091°12'0 0.0
2015-Jun-28 04:33N 30°29' W 091°12'0 0.0
2015-Jun-28 03:32N 30°29' W 091°12'0 0.0
2015-Jun-28 02:32N 30°29' W 091°12'0 0.0
2015-Jun-28 01:32N 30°29' W 091°12'0 0.2
2015-Jun-28 00:33N 30°29' W 091°12'4 4.5
2015-Jun-27 23:33N 30°24' W 091°12'5 4.7
2015-Jun-27 22:33N 30°20' W 091°09'5 4.4
2015-Jun-27 21:30N 30°17' W 091°12'  
Track history (hours):
 
Tides and Currents Weather Stations Pressure Air Temp Water Temp Dewpoint Dewpoint Depression Visibility Wind Speed Wind Dir Waves Ship Positions

Ardmore Seamaster

Last reported at 2015-Jun-30 11:31 UTC. Time now 2015-Jul-04 19:01 UTC.
Position N 29°38' W 089°57'.

Length 179 m; draft 11 m.

Type: Tanker. MMSI: 538004102.

Date/timePositionNaut miles runAvg speedWind from/ knotsBaromVisibWave heightAir tempDewpointWater temp
2015-Jun-30 11:31N 29°38' W 089°57'1412.8
2015-Jun-30 10:23N 29°53' W 089°58'3 3.5
2015-Jun-30 09:33N 29°56' W 089°59'62 8.4
2015-Jun-30 02:12N 30°14' W 091°07'710.8
2015-Jun-30 01:33N 30°19' W 091°13'4 3.8
2015-Jun-30 00:33N 30°22' W 091°14'7 6.5
2015-Jun-29 23:32N 30°29' W 091°12'0 0.0
2015-Jun-29 22:33N 30°29' W 091°12'0 0.0
2015-Jun-29 21:33N 30°29' W 091°12'0 0.0
2015-Jun-29 20:32N 30°29' W 091°12'0 0.0
2015-Jun-29 19:33N 30°29' W 091°12'0 0.0
2015-Jun-29 18:33N 30°29' W 091°12'0 0.0
2015-Jun-29 17:33N 30°29' W 091°12'0 0.0
2015-Jun-29 16:32N 30°29' W 091°12'0 0.0
2015-Jun-29 15:32N 30°29' W 091°12'0 0.0
2015-Jun-29 14:32N 30°29' W 091°12'0 0.0
2015-Jun-29 13:32N 30°29' W 091°12'0 0.0
2015-Jun-29 12:29N 30°29' W 091°12'0 0.0
2015-Jun-29 11:33N 30°29' W 091°12'0 0.0
2015-Jun-29 10:32N 30°29' W 091°12'0 0.0
2015-Jun-29 09:32N 30°29' W 091°12'0 0.0
2015-Jun-29 08:32N 30°29' W 091°12'0 0.0
2015-Jun-29 07:32N 30°29' W 091°12'0 0.0
2015-Jun-29 06:32N 30°29' W 091°12'0 0.0
2015-Jun-29 05:32N 30°29' W 091°12'0 0.0
2015-Jun-29 04:32N 30°29' W 091°12'0 0.0
2015-Jun-29 03:33N 30°29' W 091°12'0 0.0
2015-Jun-29 02:32N 30°29' W 091°12'0 0.0
2015-Jun-29 01:32N 30°29' W 091°12'0 0.0
2015-Jun-29 00:32N 30°29' W 091°12'0 0.0
2015-Jun-28 23:32N 30°29' W 091°12'0 0.0
2015-Jun-28 22:32N 30°29' W 091°12'0 0.0
2015-Jun-28 21:33N 30°29' W 091°12'0 0.0
2015-Jun-28 20:32N 30°29' W 091°12'0 0.0
2015-Jun-28 19:33N 30°29' W 091°12'0 0.0
2015-Jun-28 18:33N 30°29' W 091°12'0 0.0
2015-Jun-28 17:33N 30°29' W 091°12'0 0.0
2015-Jun-28 16:32N 30°29' W 091°12'0 0.0
2015-Jun-28 15:33N 30°29' W 091°12'0 0.0
2015-Jun-28 14:33N 30°29' W 091°12'0 0.0
2015-Jun-28 13:32N 30°29' W 091°12'0 0.0
2015-Jun-28 12:33N 30°29' W 091°12'0 0.0
2015-Jun-28 11:32N 30°29' W 091°12'0 0.0
2015-Jun-28 10:32N 30°29' W 091°12'0 0.0
2015-Jun-28 09:32N 30°29' W 091°12'0 0.0
2015-Jun-28 08:33N 30°29' W 091°12'0 0.0
2015-Jun-28 07:33N 30°29' W 091°12'0 0.0
2015-Jun-28 06:32N 30°29' W 091°12'0 0.0
2015-Jun-28 05:32N 30°29' W 091°12'0 0.0
2015-Jun-28 04:33N 30°29' W 091°12'0 0.0
2015-Jun-28 03:32N 30°29' W 091°12'0 0.0
2015-Jun-28 02:32N 30°29' W 091°12'0 0.0
2015-Jun-28 01:32N 30°29' W 091°12'0 0.2
2015-Jun-28 00:33N 30°29' W 091°12'4 4.5
2015-Jun-27 23:33N 30°24' W 091°12'5 4.7
2015-Jun-27 22:33N 30°20' W 091°09'5 4.4
2015-Jun-27 21:30N 30°17' W 091°12'  

Dump ship's entire track history